Time;durP1;ratioP1;P1;durP2;ratioP2;P2;SDS_P1;SDS_P2;PMS_P1;PMS_P2;Temp;Humidity;BMP_temperature;BMP_pressure;BME280_temperature;BME280_humidity;BME280_pressure;Samples;Min_cycle;Max_cycle;Signal;HPM_P1;HPM_P2
2022/06/29 00:02:10;;;;;;;1.20;1.20;;;22.60;70.90;;;;;;5068101;28;44134;-69
2022/06/29 00:04:38;;;;;;;1.33;1.33;;;22.60;71.90;;;;;;5069026;28;43933;-69
2022/06/29 00:07:06;;;;;;;1.20;1.20;;;22.70;72.00;;;;;;5049878;28;45806;-69
2022/06/29 00:09:34;;;;;;;1.20;1.20;;;22.80;71.60;;;;;;5068237;28;43941;-69
2022/06/29 00:12:02;;;;;;;1.17;1.17;;;22.90;71.20;;;;;;5068489;28;43901;-70
2022/06/29 00:14:30;;;;;;;1.10;1.10;;;23.00;70.70;;;;;;5068778;28;44000;-70
2022/06/29 00:17:00;;;;;;;1.30;1.30;;;23.20;70.30;;;;;;5068405;28;43894;-70
2022/06/29 00:19:28;;;;;;;1.23;1.23;;;23.30;70.00;;;;;;5068591;28;43920;-70
2022/06/29 00:21:56;;;;;;;1.00;1.00;;;23.40;69.60;;;;;;5068398;28;43956;-69
2022/06/29 00:24:24;;;;;;;1.30;1.30;;;23.50;69.20;;;;;;5068443;28;43411;-70
2022/06/29 00:26:51;;;;;;;1.20;1.20;;;23.60;68.90;;;;;;5068104;28;44843;-70
2022/06/29 00:29:19;;;;;;;1.37;1.37;;;23.60;68.60;;;;;;5068085;28;43987;-70
2022/06/29 00:31:48;;;;;;;1.20;1.20;;;23.60;68.50;;;;;;5068225;28;44104;-69
2022/06/29 00:34:17;;;;;;;1.20;1.20;;;23.60;68.80;;;;;;5068345;28;44092;-69
2022/06/29 00:36:45;;;;;;;1.20;1.20;;;23.40;69.60;;;;;;5067637;28;45122;-70
2022/06/29 00:39:13;;;;;;;1.27;1.27;;;23.30;69.20;;;;;;5067946;28;43426;-70
2022/06/29 00:41:41;;;;;;;1.10;1.10;;;23.20;70.10;;;;;;5067857;28;43988;-69
2022/06/29 00:44:09;;;;;;;1.20;1.20;;;23.10;69.60;;;;;;5068249;28;43956;-69
2022/06/29 00:46:40;;;;;;;1.10;1.10;;;22.90;69.70;;;;;;5067610;28;43818;-69
2022/06/29 00:49:08;;;;;;;1.00;1.00;;;22.90;70.10;;;;;;5067781;28;43903;-69
2022/06/29 00:51:37;;;;;;;1.00;1.00;;;22.80;70.20;;;;;;5067686;28;43993;-70
2022/06/29 00:54:05;;;;;;;1.20;1.20;;;22.80;70.50;;;;;;5068174;28;43382;-69
2022/06/29 00:56:33;;;;;;;1.10;1.10;;;22.70;70.50;;;;;;5049177;28;44716;-70
2022/06/29 00:59:03;;;;;;;1.10;1.10;;;22.70;70.60;;;;;;5067676;28;43289;-70
2022/06/29 01:01:31;;;;;;;1.20;1.20;;;22.70;70.80;;;;;;5067417;28;43328;-69
2022/06/29 01:03:59;;;;;;;1.30;1.30;;;22.70;70.80;;;;;;5068223;28;43387;-69
2022/06/29 01:06:27;;;;;;;1.23;1.23;;;22.70;70.80;;;;;;5067327;28;44050;-70
2022/06/29 01:08:56;;;;;;;1.00;1.00;;;22.60;71.60;;;;;;5067600;28;44143;-69
2022/06/29 01:11:24;;;;;;;1.10;1.10;;;22.60;72.00;;;;;;5067772;28;43843;-71
2022/06/29 01:13:53;;;;;;;1.00;1.00;;;22.70;72.00;;;;;;5067960;28;43812;-68
2022/06/29 01:16:21;;;;;;;1.30;1.30;;;22.80;71.60;;;;;;5067105;28;43901;-69
2022/06/29 01:18:49;;;;;;;1.13;0.93;;;22.90;71.20;;;;;;5067068;28;43830;-69
2022/06/29 01:21:18;;;;;;;1.10;1.10;;;23.00;70.80;;;;;;5066576;28;43443;-70
2022/06/29 01:23:47;;;;;;;1.20;1.20;;;23.10;70.30;;;;;;5067563;28;43989;-69
2022/06/29 01:26:15;;;;;;;1.57;1.20;;;23.30;70.00;;;;;;5067341;28;43965;-70
2022/06/29 01:28:46;;;;;;;1.10;1.10;;;23.40;69.60;;;;;;5048890;28;44974;-69
2022/06/29 01:31:14;;;;;;;1.20;1.20;;;23.50;69.10;;;;;;5067135;28;44014;-70
2022/06/29 01:33:42;;;;;;;1.30;1.30;;;23.60;68.80;;;;;;5067660;28;43885;-69
2022/06/29 01:36:10;;;;;;;1.30;1.30;;;23.70;68.60;;;;;;5066826;28;44061;-70
2022/06/29 01:38:38;;;;;;;1.00;1.00;;;23.70;68.20;;;;;;5067140;28;43894;-69
2022/06/29 01:41:10;;;;;;;1.00;1.00;;;23.70;68.00;;;;;;5066932;28;43507;-70
2022/06/29 01:43:38;;;;;;;1.10;1.10;;;23.70;68.20;;;;;;5067371;28;43456;-70
2022/06/29 01:46:06;;;;;;;1.00;1.00;;;23.50;68.40;;;;;;5066488;28;43979;-70
2022/06/29 01:48:34;;;;;;;1.20;1.20;;;23.40;68.70;;;;;;5066912;28;43375;-70
2022/06/29 01:51:02;;;;;;;0.97;0.97;;;23.30;69.10;;;;;;5067007;28;43947;-70
2022/06/29 01:53:30;;;;;;;1.10;1.10;;;23.10;69.20;;;;;;5067345;28;43917;-67
2022/06/29 01:55:58;;;;;;;1.10;1.10;;;23.00;69.50;;;;;;5066924;28;43975;-69
2022/06/29 01:58:27;;;;;;;1.00;1.00;;;22.90;69.70;;;;;;5066894;28;43352;-70
2022/06/29 02:00:55;;;;;;;1.07;1.07;;;22.80;70.00;;;;;;5067299;28;43961;-70
2022/06/29 02:03:23;;;;;;;1.10;1.10;;;22.80;70.30;;;;;;5066820;28;43973;-69
2022/06/29 02:05:51;;;;;;;1.00;1.00;;;22.80;70.40;;;;;;5066344;28;44699;-69
2022/06/29 02:08:19;;;;;;;0.97;0.97;;;22.70;70.50;;;;;;5066508;28;43970;-70
2022/06/29 02:10:47;;;;;;;1.23;1.23;;;22.70;70.60;;;;;;5066564;28;43979;-70
2022/06/29 02:13:15;;;;;;;0.90;0.90;;;22.70;70.70;;;;;;5066942;28;44283;-69
2022/06/29 02:15:44;;;;;;;1.10;1.10;;;22.70;70.80;;;;;;5066499;28;44015;-69
2022/06/29 02:18:12;;;;;;;1.00;1.00;;;22.70;70.80;;;;;;5066286;28;43303;-69
2022/06/29 02:20:40;;;;;;;0.90;0.90;;;22.60;70.80;;;;;;5066487;28;43916;-70
2022/06/29 02:23:08;;;;;;;1.10;1.10;;;22.60;70.90;;;;;;5066799;28;44118;-69
2022/06/29 02:25:36;;;;;;;0.90;0.90;;;22.60;70.90;;;;;;5066225;28;43957;-70
2022/06/29 02:28:05;;;;;;;1.20;1.20;;;22.60;70.90;;;;;;5047711;28;45837;-69
2022/06/29 02:36:06;;;;;;;1.10;1.10;;;22.70;71.70;;;;;;5051497;28;45414;-69
2022/06/29 02:38:34;;;;;;;1.20;1.20;;;22.80;71.10;;;;;;5069891;28;43359;-69
2022/06/29 02:41:02;;;;;;;1.10;1.10;;;23.00;70.80;;;;;;5051594;28;43949;-70
2022/06/29 02:43:30;;;;;;;1.00;1.00;;;23.10;70.40;;;;;;5051869;28;43886;-70
2022/06/29 02:45:58;;;;;;;1.00;1.00;;;23.30;70.60;;;;;;5069692;28;43949;-69
2022/06/29 02:48:27;;;;;;;0.93;0.93;;;23.40;69.50;;;;;;5069649;28;43948;-71
2022/06/29 02:50:55;;;;;;;1.10;1.10;;;23.50;69.10;;;;;;5069732;28;44104;-69
2022/06/29 02:53:26;;;;;;;1.20;1.20;;;23.60;68.80;;;;;;5070320;28;43464;-70
2022/06/29 02:55:54;;;;;;;1.00;1.00;;;23.70;68.60;;;;;;5069656;28;43980;-70
2022/06/29 02:58:22;;;;;;;1.10;1.10;;;23.60;68.30;;;;;;5069386;28;43902;-68
2022/06/29 03:00:50;;;;;;;1.10;1.10;;;23.50;68.40;;;;;;5051100;28;44065;-70
2022/06/29 03:03:18;;;;;;;1.10;1.10;;;23.40;68.70;;;;;;5032332;28;44032;-69
2022/06/29 03:05:47;;;;;;;0.90;0.90;;;23.30;69.10;;;;;;5031217;28;44282;-69
2022/06/29 03:08:15;;;;;;;1.20;1.20;;;23.10;69.30;;;;;;5068772;28;44088;-69
2022/06/29 03:10:43;;;;;;;1.30;1.30;;;23.00;69.50;;;;;;5051120;28;43939;-69
2022/06/29 03:13:11;;;;;;;1.00;1.00;;;22.90;69.70;;;;;;5069820;28;43892;-69
2022/06/29 03:15:39;;;;;;;1.00;1.00;;;22.90;70.10;;;;;;5050823;28;46136;-69
2022/06/29 03:18:09;;;;;;;0.80;0.80;;;22.80;70.20;;;;;;5069002;28;44095;-69
2022/06/29 03:20:37;;;;;;;1.17;1.17;;;22.80;70.40;;;;;;5050846;28;43810;-69
2022/06/29 03:23:06;;;;;;;1.00;1.00;;;22.70;70.40;;;;;;5069493;28;43370;-69
2022/06/29 03:25:34;;;;;;;1.10;1.10;;;22.70;70.60;;;;;;5068962;28;44682;-70
2022/06/29 03:28:02;;;;;;;0.87;0.87;;;22.60;70.90;;;;;;5068847;28;43392;-70
2022/06/29 03:30:30;;;;;;;1.10;1.10;;;22.60;71.70;;;;;;5069088;28;43398;-69
2022/06/29 03:32:58;;;;;;;1.00;1.00;;;22.60;71.90;;;;;;5051002;28;43937;-69
2022/06/29 03:35:26;;;;;;;1.00;1.00;;;22.70;71.70;;;;;;5069223;28;43948;-70
2022/06/29 03:37:54;;;;;;;1.00;1.00;;;22.80;71.50;;;;;;5068966;28;43889;-69
2022/06/29 03:40:23;;;;;;;1.80;1.10;;;22.90;71.20;;;;;;5050501;28;43492;-69
2022/06/29 03:42:52;;;;;;;1.17;1.00;;;23.00;70.60;;;;;;5067894;28;43941;-70
2022/06/29 03:45:20;;;;;;;1.30;1.30;;;23.20;70.20;;;;;;5069081;28;45434;-69
2022/06/29 03:47:48;;;;;;;1.10;1.10;;;23.30;69.70;;;;;;5068728;28;44110;-69
2022/06/29 03:50:16;;;;;;;1.10;1.10;;;23.40;69.20;;;;;;5069000;28;43977;-69
2022/06/29 03:52:45;;;;;;;1.10;1.10;;;23.50;68.80;;;;;;5051043;28;43917;-69
2022/06/29 03:55:13;;;;;;;1.40;1.30;;;23.60;68.50;;;;;;5068688;28;44067;-69
2022/06/29 03:57:42;;;;;;;1.90;1.60;;;23.70;68.10;;;;;;5068657;28;44124;-71
2022/06/29 04:00:11;;;;;;;1.43;1.40;;;23.70;67.50;;;;;;5030883;28;43885;-69
2022/06/29 04:02:39;;;;;;;1.77;1.67;;;23.70;67.70;;;;;;5061226;28;43398;-70
2022/06/29 04:05:07;;;;;;;3.57;2.00;;;23.60;68.10;;;;;;5062137;28;43977;-69
2022/06/29 04:07:35;;;;;;;2.00;1.90;;;23.40;68.50;;;;;;5061743;28;43915;-70
2022/06/29 04:10:04;;;;;;;2.30;1.60;;;23.30;68.70;;;;;;5062500;28;43885;-69
2022/06/29 04:12:33;;;;;;;2.07;1.87;;;23.10;69.00;;;;;;5062745;28;43357;-69
2022/06/29 04:15:03;;;;;;;2.07;1.87;;;23.00;69.40;;;;;;5030797;28;45710;-69
2022/06/29 04:17:31;;;;;;;2.73;2.10;;;22.90;69.60;;;;;;5050165;28;45223;-69
2022/06/29 04:19:59;;;;;;;3.93;2.20;;;22.90;70.00;;;;;;5068870;28;43710;-70
2022/06/29 04:22:28;;;;;;;4.07;2.60;;;22.80;70.00;;;;;;5069277;28;44053;-70
2022/06/29 04:24:56;;;;;;;3.47;2.33;;;22.80;70.20;;;;;;5068698;28;44079;-70
2022/06/29 04:27:24;;;;;;;3.37;2.70;;;22.70;70.20;;;;;;5068097;28;43956;-69
2022/06/29 04:29:52;;;;;;;4.93;3.23;;;22.70;70.40;;;;;;5068313;28;43441;-70
2022/06/29 04:32:22;;;;;;;4.47;3.33;;;22.70;70.60;;;;;;5068888;28;43938;-69
2022/06/29 04:34:50;;;;;;;4.87;3.30;;;22.70;70.70;;;;;;5068220;28;43611;-69
2022/06/29 04:37:18;;;;;;;3.80;3.37;;;22.60;70.60;;;;;;5068091;28;44040;-70
2022/06/29 04:39:46;;;;;;;5.30;3.43;;;22.60;70.60;;;;;;5049537;28;43896;-70
2022/06/29 04:42:14;;;;;;;7.53;3.60;;;22.60;70.70;;;;;;5050182;28;44169;-70
2022/06/29 04:44:45;;;;;;;7.03;4.00;;;22.60;71.30;;;;;;5068105;28;44125;-69
2022/06/29 04:47:12;;;;;;;6.60;4.00;;;22.60;71.70;;;;;;5067911;28;43889;-70
2022/06/29 04:49:42;;;;;;;8.97;4.27;;;22.70;71.40;;;;;;5049491;28;44107;-69
2022/06/29 04:52:10;;;;;;;4.10;3.67;;;22.80;71.10;;;;;;5068067;28;44062;-69
2022/06/29 04:54:38;;;;;;;5.50;3.97;;;22.90;69.00;;;;;;5066935;28;43917;-69
2022/06/29 04:57:06;;;;;;;4.37;3.63;;;23.10;69.00;;;;;;5067768;28;43313;-69
2022/06/29 04:59:34;;;;;;;7.93;4.07;;;23.20;68.80;;;;;;5067989;28;43477;-70
2022/06/29 05:02:03;;;;;;;6.83;3.90;;;23.40;68.70;;;;;;5068116;28;43851;-70
2022/06/29 05:04:31;;;;;;;6.97;3.90;;;23.50;68.50;;;;;;5067724;28;44957;-69
2022/06/29 05:07:00;;;;;;;5.20;3.77;;;23.60;68.20;;;;;;5067625;28;44003;-70
2022/06/29 05:09:28;;;;;;;7.37;3.97;;;23.70;68.00;;;;;;5049509;28;43834;-70
2022/06/29 05:11:56;;;;;;;5.37;3.60;;;23.70;67.90;;;;;;5049865;28;43472;-69
2022/06/29 05:14:26;;;;;;;4.20;3.20;;;23.60;68.10;;;;;;5067627;28;43995;-69
2022/06/29 05:16:54;;;;;;;5.13;3.50;;;23.50;68.30;;;;;;5067619;28;44126;-70
2022/06/29 05:19:22;;;;;;;4.17;3.40;;;23.30;68.70;;;;;;5067523;28;43956;-70
2022/06/29 05:21:50;;;;;;;4.03;3.57;;;23.20;68.80;;;;;;5049460;28;44019;-70
2022/06/29 05:24:19;;;;;;;6.13;3.27;;;23.10;69.00;;;;;;5048942;28;45926;-70
2022/06/29 05:26:47;;;;;;;3.60;3.30;;;23.00;69.40;;;;;;5048946;28;45118;-69
2022/06/29 05:29:15;;;;;;;4.33;3.57;;;22.90;69.60;;;;;;5067169;28;43975;-71
2022/06/29 05:31:43;;;;;;;3.77;3.37;;;22.80;69.70;;;;;;5067735;28;43941;-70
2022/06/29 05:34:11;;;;;;;4.03;3.50;;;22.80;70.00;;;;;;5048763;28;46113;-69
2022/06/29 05:36:39;;;;;;;4.07;3.10;;;22.70;70.00;;;;;;5035552;28;43984;-69
2022/06/29 05:39:07;;;;;;;3.90;2.97;;;22.70;70.10;;;;;;5067248;28;43901;-70
2022/06/29 05:41:36;;;;;;;3.43;2.83;;;22.70;70.20;;;;;;5067532;28;43933;-69
2022/06/29 05:44:05;;;;;;;4.70;3.33;;;22.60;70.20;;;;;;5048721;28;45887;-69
2022/06/29 05:46:33;;;;;;;4.50;3.17;;;22.60;70.20;;;;;;5067047;28;43881;-69
2022/06/29 05:49:01;;;;;;;3.67;3.17;;;22.60;70.30;;;;;;5067076;28;43888;-69
2022/06/29 05:51:29;;;;;;;4.37;3.50;;;22.60;70.90;;;;;;5067733;28;43933;-70
2022/06/29 05:53:57;;;;;;;4.03;2.93;;;22.60;72.00;;;;;;5066975;28;45044;-70
2022/06/29 05:56:25;;;;;;;3.00;2.70;;;22.60;71.30;;;;;;5066743;28;44114;-70
2022/06/29 05:58:54;;;;;;;3.17;2.87;;;22.70;71.00;;;;;;5066991;28;44013;-70
2022/06/29 06:01:22;;;;;;;3.83;3.23;;;22.80;70.50;;;;;;5066729;28;43878;-71
2022/06/29 06:03:50;;;;;;;2.73;2.53;;;23.00;70.30;;;;;;5067014;28;43944;-69
2022/06/29 06:06:19;;;;;;;2.90;2.70;;;23.10;69.70;;;;;;5066742;28;43966;-69
2022/06/29 06:08:47;;;;;;;3.83;3.00;;;23.20;69.20;;;;;;5066579;28;43976;-70
2022/06/29 06:11:15;;;;;;;4.83;2.77;;;23.40;68.80;;;;;;5049078;28;43870;-70
2022/06/29 06:13:43;;;;;;;3.10;2.87;;;23.50;68.40;;;;;;5066662;28;43995;-71
2022/06/29 06:16:12;;;;;;;3.03;2.73;;;23.50;67.80;;;;;;5066789;28;43977;-69
2022/06/29 06:19:00;;;;;;;2.90;2.70;;;23.60;67.50;;;;;;5066926;28;43934;-70
2022/06/29 06:21:28;;;;;;;3.03;2.70;;;23.70;67.30;;;;;;5067396;28;43960;-70
2022/06/29 06:23:56;;;;;;;2.50;2.30;;;23.80;67.10;;;;;;5048700;28;44232;-70
2022/06/29 06:26:24;;;;;;;2.90;2.70;;;23.70;67.10;;;;;;5048189;28;45043;-69
2022/06/29 06:28:53;;;;;;;2.60;2.40;;;23.60;67.50;;;;;;5048229;28;43952;-69
2022/06/29 06:31:25;;;;;;;2.60;2.40;;;23.50;67.90;;;;;;5067153;28;43971;-70
2022/06/29 06:33:53;;;;;;;2.70;2.50;;;23.30;68.20;;;;;;5059836;28;43745;-70
2022/06/29 06:36:23;;;;;;;2.60;2.40;;;23.10;68.30;;;;;;5060196;28;44006;-69
2022/06/29 06:38:51;;;;;;;2.67;2.47;;;23.10;68.60;;;;;;5060557;28;43442;-70
2022/06/29 06:41:25;;;;;;;3.43;2.43;;;23.00;68.80;;;;;;5060304;28;43420;-69
2022/06/29 06:43:54;;;;;;;2.57;2.37;;;22.90;69.00;;;;;;5060842;28;44099;-70
2022/06/29 06:46:22;;;;;;;2.30;2.20;;;22.80;69.20;;;;;;5047977;28;44645;-69
2022/06/29 06:48:52;;;;;;;2.57;2.40;;;22.70;69.40;;;;;;5066372;28;44019;-70
2022/06/29 06:51:21;;;;;;;2.50;2.30;;;22.70;69.50;;;;;;5067120;28;44044;-71
2022/06/29 06:53:49;;;;;;;2.47;2.27;;;22.70;69.70;;;;;;5047729;28;45815;-70
2022/06/29 06:56:17;;;;;;;2.53;2.33;;;22.60;69.60;;;;;;5066275;28;43784;-70
2022/06/29 06:58:45;;;;;;;2.10;2.00;;;22.60;69.80;;;;;;5066291;28;43425;-70
2022/06/29 07:01:21;;;;;;;2.47;2.27;;;22.60;69.80;;;;;;5066364;28;43986;-70
2022/06/29 07:03:49;;;;;;;2.23;2.13;;;22.60;69.80;;;;;;5066245;28;43961;-70
2022/06/29 07:06:18;;;;;;;2.80;2.60;;;22.60;69.90;;;;;;5066203;28;43906;-70
2022/06/29 07:08:46;;;;;;;2.43;2.20;;;22.60;70.70;;;;;;5065981;28;44049;-69
2022/06/29 07:11:14;;;;;;;2.67;2.47;;;22.60;70.90;;;;;;5066372;28;43936;-69
2022/06/29 07:13:42;;;;;;;1.93;1.83;;;22.60;70.80;;;;;;5066225;28;43997;-70
2022/06/29 07:16:11;;;;;;;2.07;1.97;;;22.70;70.30;;;;;;5065994;28;43949;-70
2022/06/29 07:18:39;;;;;;;3.17;2.17;;;22.80;70.00;;;;;;5067504;28;43787;-70
2022/06/29 07:21:07;;;;;;;2.53;2.40;;;23.00;70.20;;;;;;5051228;28;44166;-70
2022/06/29 07:23:37;;;;;;;2.50;2.30;;;23.10;69.10;;;;;;5069315;28;44047;-70
2022/06/29 07:26:05;;;;;;;2.23;2.13;;;23.20;68.60;;;;;;5069677;28;43823;-69
2022/06/29 07:28:33;;;;;;;2.10;2.00;;;23.30;68.10;;;;;;5069639;28;44094;-70
2022/06/29 07:31:01;;;;;;;2.10;2.00;;;23.40;67.70;;;;;;5069880;28;43463;-69
2022/06/29 07:33:29;;;;;;;2.57;2.43;;;23.60;67.50;;;;;;5069472;28;44955;-68
2022/06/29 07:35:57;;;;;;;1.93;1.93;;;23.60;67.10;;;;;;5069598;28;43989;-71
2022/06/29 07:38:25;;;;;;;1.97;1.87;;;23.70;66.80;;;;;;5069198;28;43974;-69
2022/06/29 07:40:55;;;;;;;2.10;2.00;;;23.70;66.70;;;;;;5069334;28;43400;-71
2022/06/29 07:43:23;;;;;;;2.43;2.30;;;23.70;66.90;;;;;;5068970;28;44690;-70
2022/06/29 07:45:51;;;;;;;2.10;2.00;;;23.50;67.40;;;;;;5069269;28;44579;-70
2022/06/29 07:48:19;;;;;;;2.17;2.07;;;23.40;67.70;;;;;;5051006;28;43918;-70
2022/06/29 07:50:47;;;;;;;2.30;2.00;;;23.20;67.70;;;;;;5069496;28;44080;-69
2022/06/29 07:53:15;;;;;;;2.10;2.00;;;23.10;68.00;;;;;;5050390;28;45755;-69
2022/06/29 07:55:44;;;;;;;2.43;2.23;;;23.00;68.30;;;;;;5068849;28;44279;-69
2022/06/29 07:58:14;;;;;;;2.10;2.00;;;22.90;68.60;;;;;;5069161;28;43987;-70
2022/06/29 08:00:42;;;;;;;1.97;1.87;;;22.80;68.70;;;;;;5069376;28;43949;-69
2022/06/29 08:03:10;;;;;;;2.20;2.10;;;22.80;69.00;;;;;;5068328;28;43957;-69
2022/06/29 08:05:38;;;;;;;2.07;1.93;;;22.70;68.80;;;;;;5068481;28;43336;-70
2022/06/29 08:08:07;;;;;;;1.93;1.83;;;22.70;69.00;;;;;;5068839;28;43925;-71
2022/06/29 08:10:34;;;;;;;2.07;1.97;;;22.70;69.10;;;;;;5069072;28;43924;-71
2022/06/29 08:13:02;;;;;;;2.00;1.90;;;22.70;69.10;;;;;;5068720;28;43892;-69
2022/06/29 08:15:32;;;;;;;2.07;1.97;;;22.60;69.00;;;;;;5068749;28;43905;-70
2022/06/29 08:18:00;;;;;;;2.07;1.97;;;22.60;69.10;;;;;;5068937;28;43450;-69
2022/06/29 08:20:28;;;;;;;1.97;1.87;;;22.60;69.10;;;;;;5069042;28;43913;-70
2022/06/29 08:22:56;;;;;;;1.90;1.80;;;22.60;69.20;;;;;;5068860;28;44682;-70
2022/06/29 08:25:25;;;;;;;1.97;1.87;;;22.60;69.20;;;;;;5068613;28;43329;-70
2022/06/29 08:27:53;;;;;;;2.20;2.00;;;22.60;69.50;;;;;;5068630;28;43342;-70
2022/06/29 08:30:21;;;;;;;1.80;1.80;;;22.50;70.00;;;;;;5067527;28;43444;-70
2022/06/29 08:32:50;;;;;;;2.10;1.90;;;22.60;70.20;;;;;;5068086;28;44907;-70
2022/06/29 08:35:19;;;;;;;3.07;2.00;;;22.70;69.60;;;;;;5068342;28;43978;-70
2022/06/29 08:37:47;;;;;;;2.10;1.80;;;22.80;69.30;;;;;;5068488;28;44018;-70
2022/06/29 08:40:16;;;;;;;1.87;1.77;;;23.00;69.00;;;;;;5068682;28;43312;-71
2022/06/29 08:42:45;;;;;;;2.23;2.03;;;23.10;68.50;;;;;;5068141;28;43854;-70
2022/06/29 08:45:14;;;;;;;1.77;1.77;;;23.20;68.10;;;;;;5050208;28;44647;-70
2022/06/29 08:47:42;;;;;;;2.10;2.00;;;23.30;67.60;;;;;;5050108;28;43961;-69
2022/06/29 08:50:12;;;;;;;1.80;1.80;;;23.40;67.20;;;;;;5068560;28;43695;-70
2022/06/29 08:52:42;;;;;;;2.20;2.00;;;23.50;66.80;;;;;;5067922;28;43960;-70
2022/06/29 08:55:11;;;;;;;1.90;1.90;;;23.60;66.60;;;;;;5068032;28;43971;-71
2022/06/29 08:57:40;;;;;;;1.80;1.80;;;23.60;66.60;;;;;;5068103;28;43723;-69
2022/06/29 09:00:09;;;;;;;1.80;1.80;;;23.50;66.80;;;;;;5068266;28;43547;-70
2022/06/29 09:02:37;;;;;;;2.03;1.93;;;23.40;67.20;;;;;;5067569;28;43761;-70
2022/06/29 09:05:06;;;;;;;1.93;1.93;;;23.30;67.30;;;;;;5067887;28;44009;-69
2022/06/29 09:07:35;;;;;;;1.73;1.73;;;23.10;67.30;;;;;;5068085;28;43789;-70
2022/06/29 09:10:06;;;;;;;1.80;1.80;;;23.00;67.50;;;;;;5061474;28;43405;-69
2022/06/29 09:12:34;;;;;;;1.60;1.60;;;22.90;67.60;;;;;;5061424;28;43974;-70
2022/06/29 09:15:03;;;;;;;1.60;1.60;;;22.80;67.60;;;;;;5049438;28;44794;-70
2022/06/29 09:17:31;;;;;;;1.90;1.87;;;22.80;67.80;;;;;;5068015;28;43432;-70
2022/06/29 09:19:59;;;;;;;1.37;1.37;;;22.70;68.00;;;;;;5068393;28;43745;-69
2022/06/29 09:22:53;;;;;;;1.80;1.80;;;22.70;68.20;;;;;;5067166;28;44571;-70
2022/06/29 09:25:24;;;;;;;1.50;1.40;;;22.60;68.20;;;;;;5067832;28;43987;-69
2022/06/29 09:27:55;;;;;;;1.90;1.80;;;22.60;68.40;;;;;;5067736;28;43960;-70
2022/06/29 09:30:26;;;;;;;2.00;1.90;;;22.60;68.50;;;;;;5068051;28;44042;-70
2022/06/29 09:33:00;;;;;;;1.80;1.80;;;22.60;68.60;;;;;;5067299;28;44084;-70
2022/06/29 09:35:28;;;;;;;1.90;1.80;;;22.60;68.70;;;;;;5067731;28;43370;-70
2022/06/29 09:38:12;;;;;;;1.90;1.80;;;22.50;69.70;;;;;;5068090;28;43861;-70
2022/06/29 09:40:54;;;;;;;1.63;1.63;;;22.50;70.00;;;;;;5066771;28;44027;-70
2022/06/29 09:43:22;;;;;;;1.80;1.70;;;22.60;70.00;;;;;;5067371;28;44784;-69
2022/06/29 09:45:50;;;;;;;1.63;1.63;;;22.70;69.70;;;;;;5048873;28;44881;-71
2022/06/29 09:48:18;;;;;;;1.80;1.70;;;22.80;69.20;;;;;;5067267;28;43382;-70
2022/06/29 09:50:46;;;;;;;1.80;1.80;;;22.90;68.60;;;;;;5067958;28;43945;-69
2022/06/29 09:53:15;;;;;;;1.67;1.67;;;23.10;68.30;;;;;;5066903;28;43616;-69
2022/06/29 09:55:43;;;;;;;1.80;1.70;;;23.20;67.80;;;;;;5067040;28;44142;-69
2022/06/29 09:58:11;;;;;;;1.87;1.87;;;23.30;67.50;;;;;;5066903;28;44003;-70
2022/06/29 10:03:25;;;;;;;1.60;1.50;;;23.50;67.00;;;;;;5066422;28;44015;-70
2022/06/29 10:05:59;;;;;;;1.50;1.50;;;23.60;66.80;;;;;;5066936;28;43897;-69
2022/06/29 10:08:29;;;;;;;1.60;1.60;;;23.70;66.70;;;;;;5066976;28;44014;-70
2022/06/29 10:11:01;;;;;;;1.70;1.70;;;23.60;67.30;;;;;;5067315;28;43822;-70
2022/06/29 10:13:42;;;;;;;1.50;1.50;;;23.50;67.00;;;;;;5067204;28;43617;-70
2022/06/29 10:16:16;;;;;;;1.60;1.60;;;23.40;67.30;;;;;;5066833;28;43953;-70
2022/06/29 10:18:57;;;;;;;1.87;1.77;;;23.20;67.30;;;;;;5048415;28;44008;-70
2022/06/29 10:21:27;;;;;;;1.50;1.50;;;23.10;67.60;;;;;;5067015;28;43928;-70
2022/06/29 10:23:57;;;;;;;1.47;1.47;;;23.00;68.00;;;;;;5066465;28;44252;-71
2022/06/29 10:26:55;;;;;;;1.40;1.40;;;22.90;68.30;;;;;;5048719;28;44654;-71
2022/06/29 10:29:31;;;;;;;1.47;1.47;;;22.80;68.60;;;;;;5066783;28;43928;-70
2022/06/29 10:32:15;;;;;;;1.33;1.33;;;22.80;68.90;;;;;;5066958;28;43991;-69
2022/06/29 10:37:31;;;;;;;1.80;1.70;;;22.60;69.10;;;;;;5062844;28;43847;-69
2022/06/29 10:40:04;;;;;;;1.67;1.67;;;22.60;69.30;;;;;;5047948;28;44092;-69
2022/06/29 10:45:37;;;;;;;1.40;1.40;;;22.60;70.30;;;;;;5059915;28;43876;-71
2022/06/29 10:48:16;;;;;;;1.33;1.33;;;22.60;69.60;;;;;;5066561;28;44025;-69
2022/06/29 10:50:45;;;;;;;1.47;1.47;;;22.60;69.70;;;;;;5047864;28;43945;-70
2022/06/29 10:53:14;;;;;;;1.53;1.53;;;22.50;69.60;;;;;;5067608;28;44023;-69
2022/06/29 10:55:44;;;;;;;1.30;1.30;;;22.50;69.60;;;;;;5069579;28;43866;-70
2022/06/29 10:58:12;;;;;;;1.30;1.30;;;22.50;69.60;;;;;;5069805;28;43912;-70
2022/06/29 11:00:40;;;;;;;1.40;1.40;;;22.50;69.90;;;;;;5069859;28;44057;-70
2022/06/29 11:03:16;;;;;;;1.33;1.33;;;22.50;70.70;;;;;;5069868;28;43918;-71
2022/06/29 11:14:03;;;;;;;1.60;1.60;;;23.00;69.80;;;;;;5051787;28;43940;-70
2022/06/29 11:16:33;;;;;;;1.50;1.40;;;23.10;69.20;;;;;;5037767;28;44588;-69
2022/06/29 11:19:01;;;;;;;1.50;1.50;;;23.30;68.90;;;;;;5069618;28;43904;-69
2022/06/29 11:21:29;;;;;;;1.40;1.40;;;23.40;68.60;;;;;;5069503;28;43944;-69
2022/06/29 11:23:58;;;;;;;1.80;1.50;;;23.50;68.30;;;;;;5070022;28;43947;-70
2022/06/29 11:26:29;;;;;;;1.33;1.33;;;23.60;68.00;;;;;;5069253;28;43951;-70
2022/06/29 11:28:58;;;;;;;1.37;1.37;;;23.60;67.70;;;;;;5069535;28;43882;-70
2022/06/29 11:31:26;;;;;;;1.50;1.50;;;23.50;67.90;;;;;;5062946;28;43970;-69
2022/06/29 11:33:55;;;;;;;1.50;1.50;;;23.40;68.30;;;;;;5063066;28;43905;-69
2022/06/29 11:36:24;;;;;;;1.57;1.47;;;23.30;68.40;;;;;;5057729;28;46027;-70
2022/06/29 11:38:53;;;;;;;1.40;1.40;;;23.10;68.30;;;;;;5063046;28;44023;-69
2022/06/29 11:41:22;;;;;;;1.13;1.13;;;23.00;68.60;;;;;;5050695;28;44051;-70
2022/06/29 11:44:03;;;;;;;1.20;1.20;;;22.90;69.00;;;;;;5069661;28;43905;-70
2022/06/29 11:46:33;;;;;;;1.40;1.40;;;22.80;69.30;;;;;;5069308;28;43923;-71
2022/06/29 11:51:53;;;;;;;1.30;1.30;;;22.70;69.60;;;;;;5068926;28;43344;-70
2022/06/29 11:54:37;;;;;;;1.30;1.30;;;22.70;69.80;;;;;;5069405;28;44064;-70
2022/06/29 11:57:08;;;;;;;1.30;1.30;;;22.60;70.00;;;;;;5068939;28;44938;-70
2022/06/29 11:59:39;;;;;;;1.60;1.60;;;22.60;70.00;;;;;;5050393;28;44988;-70
2022/06/29 12:02:07;;;;;;;1.40;1.40;;;22.60;70.90;;;;;;5068580;28;43507;-70
2022/06/29 12:04:37;;;;;;;1.30;1.30;;;22.60;71.30;;;;;;5069208;28;44378;-70
2022/06/29 12:07:06;;;;;;;1.37;1.37;;;22.60;71.40;;;;;;5068466;28;43853;-70
2022/06/29 12:09:34;;;;;;;1.30;1.30;;;22.70;71.10;;;;;;5068778;28;43948;-70
2022/06/29 12:12:02;;;;;;;1.40;1.40;;;22.80;70.90;;;;;;5068675;28;44359;-69
2022/06/29 12:14:30;;;;;;;1.60;1.50;;;22.90;70.40;;;;;;5051137;28;43851;-70
2022/06/29 12:16:59;;;;;;;1.20;1.20;;;23.10;70.00;;;;;;5068922;28;43979;-69
2022/06/29 12:19:28;;;;;;;1.23;1.23;;;23.20;69.60;;;;;;5068861;28;44042;-71
2022/06/29 12:21:57;;;;;;;1.30;1.30;;;23.30;69.10;;;;;;5068458;28;44095;-70
2022/06/29 12:24:25;;;;;;;1.30;1.30;;;23.40;68.80;;;;;;5068794;28;43875;-70
2022/06/29 12:26:53;;;;;;;1.20;1.20;;;23.50;68.40;;;;;;5068350;28;43938;-70
2022/06/29 12:29:21;;;;;;;1.60;1.50;;;23.60;68.20;;;;;;5068124;28;43317;-70
2022/06/29 12:31:55;;;;;;;1.40;1.40;;;23.60;67.90;;;;;;5068213;28;43849;-69
2022/06/29 12:34:25;;;;;;;1.50;1.50;;;23.60;68.10;;;;;;5068819;28;44072;-71
2022/06/29 12:36:57;;;;;;;1.20;1.20;;;23.50;68.40;;;;;;5068690;28;44036;-69
2022/06/29 12:39:26;;;;;;;1.17;1.17;;;23.40;68.90;;;;;;5068431;28;44112;-70
2022/06/29 12:41:54;;;;;;;1.20;1.20;;;23.20;68.60;;;;;;5068246;28;43828;-70
2022/06/29 12:44:22;;;;;;;1.50;1.50;;;23.10;68.90;;;;;;5068439;28;44167;-70
2022/06/29 12:46:50;;;;;;;1.40;1.40;;;23.00;69.30;;;;;;5068210;28;43866;-71
2022/06/29 12:49:18;;;;;;;1.17;1.17;;;22.90;69.50;;;;;;5068113;28;43333;-70
2022/06/29 12:51:47;;;;;;;1.40;1.40;;;22.80;69.70;;;;;;5068084;28;43948;-70
2022/06/29 12:54:17;;;;;;;1.20;1.20;;;22.70;69.80;;;;;;5068237;28;43975;-70
2022/06/29 12:56:45;;;;;;;1.20;1.20;;;22.70;70.10;;;;;;5049629;28;44957;-70
2022/06/29 12:59:14;;;;;;;1.10;1.10;;;22.70;70.10;;;;;;5067988;28;44002;-71
2022/06/29 13:01:42;;;;;;;1.50;1.50;;;22.70;70.30;;;;;;5049240;28;44044;-69
2022/06/29 13:04:10;;;;;;;1.20;1.20;;;22.70;70.40;;;;;;5068971;28;43797;-70
2022/06/29 13:06:38;;;;;;;1.37;1.37;;;22.70;70.50;;;;;;5067817;28;44032;-70
2022/06/29 13:09:07;;;;;;;1.57;1.57;;;22.60;70.40;;;;;;5067719;28;43476;-70
2022/06/29 13:11:36;;;;;;;1.10;1.10;;;22.60;70.50;;;;;;5067731;28;44073;-71
2022/06/29 13:14:03;;;;;;;1.40;1.40;;;22.60;70.60;;;;;;5068040;28;43467;-71
2022/06/29 13:16:31;;;;;;;1.30;1.30;;;22.60;70.60;;;;;;5066966;28;44124;-70
2022/06/29 13:19:00;;;;;;;1.30;1.30;;;22.60;70.90;;;;;;5067853;28;43940;-70
2022/06/29 13:21:28;;;;;;;1.20;1.20;;;22.60;71.60;;;;;;5067957;28;43929;-69
2022/06/29 13:23:57;;;;;;;1.30;1.30;;;22.60;71.80;;;;;;5068107;28;43980;-69